Time,TemperatureF,DewpointF,PressureIn,WindDirection,WindDirectionDegrees,WindSpeedMPH,WindSpeedGustMPH,Humidity,HourlyPrecipIn,Conditions,Clouds,dailyrainin,SolarRadiationWatts/m^2,SoftwareType,DateUTC
2013-12-02 00:01:00,49.0,47.0,-100.00,NNW,335,6.0,13.0,92,-99.99,,,-99.99,0.000000,,2013-12-02 08:01:00,
2013-12-02 00:11:00,49.0,47.0,-100.00,NNW,335,6.0,13.0,92,-99.99,,,-99.99,0.000000,,2013-12-02 08:11:00,
2013-12-02 00:42:00,48.0,46.0,-100.00,East,90,4.0,6.0,92,-99.99,,,-99.99,0.000000,,2013-12-02 08:42:00,
2013-12-02 00:52:00,48.0,46.0,-100.00,East,90,4.0,6.0,92,-99.99,,,-99.99,0.000000,,2013-12-02 08:52:00,
2013-12-02 01:01:00,48.0,46.0,-100.00,East,90,4.0,6.0,92,-99.99,,,-99.99,0.000000,,2013-12-02 09:01:00,
2013-12-02 01:11:00,48.0,46.0,-100.00,East,90,4.0,6.0,92,-99.99,,,-99.99,0.000000,,2013-12-02 09:11:00,
2013-12-02 01:43:00,48.0,47.0,-100.00,SSE,164,4.0,8.0,95,-99.99,,,-99.99,0.120000,,2013-12-02 09:43:00,
2013-12-02 01:54:00,48.0,47.0,-100.00,SSE,164,4.0,8.0,95,-99.99,,,-99.99,0.120000,,2013-12-02 09:54:00,
2013-12-02 02:03:00,48.0,47.0,-100.00,SSE,164,4.0,8.0,95,-99.99,,,-99.99,0.120000,,2013-12-02 10:03:00,
2013-12-02 02:12:00,48.0,47.0,-100.00,SSE,164,4.0,8.0,95,-99.99,,,-99.99,0.120000,,2013-12-02 10:12:00,
2013-12-02 02:52:00,48.0,46.0,-100.00,South,190,2.0,6.0,91,-99.99,,,-99.99,0.120000,,2013-12-02 10:52:00,
2013-12-02 03:02:00,48.0,46.0,-100.00,South,190,2.0,6.0,91,-99.99,,,-99.99,0.120000,,2013-12-02 11:02:00,
2013-12-02 03:11:00,48.0,46.0,-100.00,South,190,2.0,6.0,91,-99.99,,,-99.99,0.120000,,2013-12-02 11:11:00,
2013-12-02 03:42:00,47.0,45.0,-100.00,NW,318,9.0,17.0,91,-99.99,,,0.07,0.000000,,2013-12-02 11:42:00,
2013-12-02 03:53:00,47.0,45.0,-100.00,NW,318,9.0,17.0,91,-99.99,,,0.07,0.000000,,2013-12-02 11:53:00,
2013-12-02 04:02:00,47.0,45.0,-100.00,NW,318,9.0,17.0,91,-99.99,,,0.07,0.000000,,2013-12-02 12:02:00,
2013-12-02 04:11:00,47.0,45.0,-100.00,NW,318,9.0,17.0,91,-99.99,,,0.07,0.000000,,2013-12-02 12:11:00,
2013-12-02 04:42:00,44.0,40.0,-100.00,WNW,303,7.0,21.0,86,-99.99,,,0.07,0.120000,,2013-12-02 12:42:00,
2013-12-02 04:52:00,44.0,40.0,-100.00,WNW,303,7.0,21.0,86,-99.99,,,0.07,0.120000,,2013-12-02 12:52:00,
2013-12-02 05:01:00,44.0,40.0,-100.00,WNW,303,7.0,21.0,86,-99.99,,,0.07,0.120000,,2013-12-02 13:01:00,
2013-12-02 05:11:00,44.0,40.0,-100.00,WNW,303,7.0,21.0,86,-99.99,,,0.07,0.120000,,2013-12-02 13:11:00,
2013-12-02 05:42:00,43.0,39.0,-100.00,WNW,300,6.0,13.0,85,-99.99,,,0.07,0.120000,,2013-12-02 13:42:00,
2013-12-02 05:52:00,43.0,39.0,-100.00,WNW,300,6.0,13.0,85,-99.99,,,0.07,0.120000,,2013-12-02 13:52:00,
2013-12-02 06:02:00,43.0,39.0,-100.00,WNW,300,6.0,13.0,85,-99.99,,,0.07,0.120000,,2013-12-02 14:02:00,
2013-12-02 06:11:00,43.0,39.0,-100.00,WNW,300,6.0,13.0,85,-99.99,,,0.07,0.120000,,2013-12-02 14:11:00,
2013-12-02 06:42:00,42.0,37.0,-100.00,West,265,6.0,16.0,81,-99.99,,,0.07,0.120000,,2013-12-02 14:42:00,
2013-12-02 06:52:00,42.0,37.0,-100.00,West,265,6.0,16.0,81,-99.99,,,0.07,0.120000,,2013-12-02 14:52:00,
2013-12-02 07:02:00,42.0,37.0,-100.00,West,265,6.0,16.0,81,-99.99,,,0.07,0.120000,,2013-12-02 15:02:00,
2013-12-02 07:12:00,42.0,37.0,-100.00,West,265,6.0,16.0,81,-99.99,,,0.07,0.120000,,2013-12-02 15:12:00,
2013-12-02 07:43:00,41.0,36.0,-100.00,West,281,7.0,16.0,80,-99.99,,,0.07,0.120000,,2013-12-02 15:43:00,
2013-12-02 07:54:00,41.0,36.0,-100.00,West,281,7.0,16.0,80,-99.99,,,0.07,0.120000,,2013-12-02 15:54:00,
2013-12-02 08:03:00,41.0,36.0,-100.00,West,281,7.0,16.0,80,-99.99,,,0.07,0.120000,,2013-12-02 16:03:00,
2013-12-02 08:13:00,41.0,36.0,-100.00,West,281,7.0,16.0,80,-99.99,,,0.07,0.120000,,2013-12-02 16:13:00,
2013-12-02 08:53:00,42.0,33.0,-100.00,West,276,9.0,20.0,68,-99.99,,,0.06,0.350000,,2013-12-02 16:53:00,
2013-12-02 09:02:00,42.0,33.0,-100.00,West,276,9.0,20.0,68,-99.99,,,0.06,0.350000,,2013-12-02 17:02:00,
2013-12-02 09:12:00,42.0,33.0,-100.00,West,276,9.0,20.0,68,-99.99,,,0.06,0.350000,,2013-12-02 17:12:00,
2013-12-02 09:42:00,40.0,33.0,-100.00,NNW,345,2.0,7.0,75,-99.99,,,0.06,20.570000,,2013-12-02 17:42:00,
2013-12-02 09:53:00,40.0,33.0,-100.00,NNW,345,2.0,7.0,75,-99.99,,,0.06,20.570000,,2013-12-02 17:53:00,
2013-12-02 10:01:00,40.0,33.0,-100.00,NNW,345,2.0,7.0,75,-99.99,,,0.06,20.570000,,2013-12-02 18:01:00,
2013-12-02 10:12:00,40.0,33.0,-100.00,NNW,345,2.0,7.0,75,-99.99,,,0.06,20.570000,,2013-12-02 18:12:00,
2013-12-02 10:42:00,42.0,32.0,-100.00,West,277,5.0,17.0,68,-99.99,,,-99.99,70.199997,,2013-12-02 18:42:00,
2013-12-02 10:52:00,42.0,32.0,-100.00,West,277,5.0,17.0,68,-99.99,,,-99.99,70.199997,,2013-12-02 18:52:00,
2013-12-02 11:02:00,42.0,32.0,-100.00,West,277,5.0,17.0,68,-99.99,,,-99.99,70.199997,,2013-12-02 19:02:00,
2013-12-02 11:12:00,42.0,32.0,-100.00,West,277,5.0,17.0,68,-99.99,,,-99.99,70.199997,,2013-12-02 19:12:00,
2013-12-02 11:42:00,40.0,33.0,-100.00,SW,228,4.0,10.0,76,-99.99,,,0.06,95.180000,,2013-12-02 19:42:00,
2013-12-02 11:52:00,40.0,33.0,-100.00,SW,228,4.0,10.0,76,-99.99,,,0.06,95.180000,,2013-12-02 19:52:00,
2013-12-02 12:02:00,40.0,33.0,-100.00,SW,228,4.0,10.0,76,-99.99,,,0.06,95.180000,,2013-12-02 20:02:00,
2013-12-02 12:11:00,40.0,33.0,-100.00,SW,228,4.0,10.0,76,-99.99,,,0.06,95.180000,,2013-12-02 20:11:00,
2013-12-02 12:42:00,40.0,32.0,-100.00,WNW,284,7.0,24.0,73,-99.99,,,0.06,203.149994,,2013-12-02 20:42:00,
2013-12-02 12:52:00,40.0,32.0,-100.00,WNW,284,7.0,24.0,73,-99.99,,,0.06,203.149994,,2013-12-02 20:52:00,
2013-12-02 13:02:00,40.0,32.0,-100.00,WNW,284,7.0,24.0,73,-99.99,,,0.06,203.149994,,2013-12-02 21:02:00,
2013-12-02 13:11:00,40.0,32.0,-100.00,WNW,284,7.0,24.0,73,-99.99,,,0.06,203.149994,,2013-12-02 21:11:00,
2013-12-02 14:42:00,46.0,30.0,-100.00,WNW,288,8.0,18.0,55,-99.99,,,-99.99,462.440002,,2013-12-02 22:42:00,
2013-12-02 15:12:00,37.0,34.0,-100.00,SW,227,4.0,12.0,89,-99.99,,,-99.99,52.529999,,2013-12-02 23:12:00,
2013-12-02 15:22:00,37.0,34.0,-100.00,SW,227,4.0,12.0,89,-99.99,,,-99.99,52.529999,,2013-12-02 23:22:00,
2013-12-02 15:33:00,37.0,34.0,-100.00,SW,227,4.0,12.0,89,-99.99,,,-99.99,52.529999,,2013-12-02 23:33:00,
2013-12-02 15:42:00,37.0,34.0,-100.00,SW,227,4.0,12.0,89,-99.99,,,-99.99,52.529999,,2013-12-02 23:42:00,
2013-12-02 16:21:00,41.0,35.0,-100.00,WSW,250,4.0,10.0,76,-99.99,,,-99.99,197.460007,,2013-12-03 00:21:00,
2013-12-02 16:32:00,41.0,35.0,-100.00,WSW,250,4.0,10.0,76,-99.99,,,-99.99,197.460007,,2013-12-03 00:32:00,
2013-12-02 16:42:00,41.0,35.0,-100.00,WSW,250,4.0,10.0,76,-99.99,,,-99.99,197.460007,,2013-12-03 00:42:00,
2013-12-02 17:21:00,40.0,29.0,-100.00,WNW,300,6.0,13.0,63,-99.99,,,-99.99,23.590000,,2013-12-03 01:21:00,
2013-12-02 17:32:00,40.0,29.0,-100.00,WNW,300,6.0,13.0,63,-99.99,,,-99.99,23.590000,,2013-12-03 01:32:00,
2013-12-02 17:42:00,40.0,29.0,-100.00,WNW,300,6.0,13.0,63,-99.99,,,-99.99,23.590000,,2013-12-03 01:42:00,
2013-12-02 18:21:00,37.0,30.0,-100.00,South,186,3.0,7.0,75,-99.99,,,-99.99,0.930000,,2013-12-03 02:21:00,
2013-12-02 18:32:00,37.0,30.0,-100.00,South,186,3.0,7.0,75,-99.99,,,-99.99,0.930000,,2013-12-03 02:32:00,
2013-12-02 18:42:00,37.0,30.0,-100.00,South,186,3.0,7.0,75,-99.99,,,-99.99,0.930000,,2013-12-03 02:42:00,
2013-12-02 19:21:00,38.0,32.0,-100.00,SE,127,2.0,4.0,79,-99.99,,,-99.99,0.120000,,2013-12-03 03:21:00,
2013-12-02 19:33:00,38.0,32.0,-100.00,SE,127,2.0,4.0,79,-99.99,,,-99.99,0.120000,,2013-12-03 03:33:00,
2013-12-02 19:43:00,38.0,32.0,-100.00,SE,127,2.0,4.0,79,-99.99,,,-99.99,0.120000,,2013-12-03 03:43:00,
2013-12-02 20:23:00,37.0,33.0,-100.00,SE,134,2.0,4.0,86,-99.99,,,-99.99,0.120000,,2013-12-03 04:23:00,
2013-12-02 20:33:00,37.0,33.0,-100.00,SE,134,2.0,4.0,86,-99.99,,,-99.99,0.120000,,2013-12-03 04:33:00,
2013-12-02 20:42:00,37.0,33.0,-100.00,SE,134,2.0,4.0,86,-99.99,,,-99.99,0.120000,,2013-12-03 04:42:00,
2013-12-02 21:22:00,36.0,33.0,-100.00,NNW,339,2.0,4.0,87,-99.99,,,-99.99,0.120000,,2013-12-03 05:22:00,
2013-12-02 21:33:00,36.0,33.0,-100.00,NNW,339,2.0,4.0,87,-99.99,,,-99.99,0.120000,,2013-12-03 05:33:00,
2013-12-02 21:42:00,36.0,33.0,-100.00,NNW,339,2.0,4.0,87,-99.99,,,-99.99,0.120000,,2013-12-03 05:42:00,
2013-12-02 22:22:00,35.0,33.0,-100.00,East,82,2.0,4.0,91,-99.99,,,-99.99,0.120000,,2013-12-03 06:22:00,
2013-12-02 22:32:00,35.0,33.0,-100.00,East,82,2.0,4.0,91,-99.99,,,-99.99,0.120000,,2013-12-03 06:32:00,
2013-12-02 22:42:00,35.0,33.0,-100.00,East,82,2.0,4.0,91,-99.99,,,-99.99,0.120000,,2013-12-03 06:42:00,
2013-12-02 23:22:00,33.0,31.0,-100.00,South,183,2.0,3.0,94,-99.99,,,-99.99,0.120000,,2013-12-03 07:22:00,
2013-12-02 23:32:00,33.0,31.0,-100.00,South,183,2.0,3.0,94,-99.99,,,-99.99,0.120000,,2013-12-03 07:32:00,
2013-12-02 23:42:00,33.0,31.0,-100.00,South,183,2.0,3.0,94,-99.99,,,-99.99,0.120000,,2013-12-03 07:42:00,